Time;durP1;ratioP1;P1;durP2;ratioP2;P2;SDS_P1;SDS_P2;PMS_P1;PMS_P2;Temp;Humidity;BMP_temperature;BMP_pressure;BME280_temperature;BME280_humidity;BME280_pressure;Samples;Min_cycle;Max_cycle;Signal;HPM_P1;HPM_P2
2022/06/29 00:01:47;;;;;;;;;1.00;1.00;;;;;;;;5099340;27;46610;-75
2022/06/29 00:04:12;;;;;;;;;3.00;2.67;;;;;;;;5099179;27;45288;-75
2022/06/29 00:06:38;;;;;;;;;3.00;1.67;;;;;;;;5099316;27;45362;-75
2022/06/29 00:09:03;;;;;;;;;1.00;1.00;;;;;;;;5096656;27;45422;-75
2022/06/29 00:11:28;;;;;;;;;0.33;0.33;;;;;;;;5098951;27;46252;-75
2022/06/29 00:13:53;;;;;;;;;1.33;1.00;;;;;;;;5099005;27;45295;-74
2022/06/29 00:16:18;;;;;;;;;99.25;97.25;;;;;;;;5099045;27;45290;-74
2022/06/29 00:18:44;;;;;;;;;6.33;4.67;;;;;;;;5099104;27;45308;-74
2022/06/29 00:21:10;;;;;;;;;7.33;6.67;;;;;;;;5098897;27;46693;-74
2022/06/29 00:23:35;;;;;;;;;9.67;5.67;;;;;;;;5098805;27;45520;-74
2022/06/29 00:26:00;;;;;;;;;3.33;2.33;;;;;;;;5098999;27;45282;-74
2022/06/29 00:28:25;;;;;;;;;2.00;2.00;;;;;;;;5099222;27;45296;-74
2022/06/29 00:30:51;;;;;;;;;1.67;1.67;;;;;;;;5098691;27;45306;-74
2022/06/29 00:33:16;;;;;;;;;3.00;2.00;;;;;;;;5098798;27;45320;-75
2022/06/29 00:35:41;;;;;;;;;3.00;3.00;;;;;;;;5098816;27;45273;-74
2022/06/29 00:38:06;;;;;;;;;2.33;1.00;;;;;;;;5099014;27;45444;-74
2022/06/29 00:40:32;;;;;;;;;1.33;1.00;;;;;;;;5098313;27;45485;-74
2022/06/29 00:42:57;;;;;;;;;2.33;1.33;;;;;;;;5098817;27;45367;-74
2022/06/29 00:45:22;;;;;;;;;2.00;1.00;;;;;;;;5098729;27;45252;-74
2022/06/29 00:47:47;;;;;;;;;2.67;1.00;;;;;;;;5098684;27;45432;-74
2022/06/29 00:50:13;;;;;;;;;2.00;2.00;;;;;;;;5098341;27;46319;-74
2022/06/29 00:52:41;;;;;;;;;1.67;1.00;;;;;;;;5098440;27;45422;-74
2022/06/29 00:55:09;;;;;;;;;1.00;1.00;;;;;;;;5098606;27;45457;-75
2022/06/29 00:57:37;;;;;;;;;1.00;1.00;;;;;;;;5098796;27;45267;-74
2022/06/29 01:00:03;;;;;;;;;2.00;2.00;;;;;;;;5097923;27;46547;-74
2022/06/29 01:02:32;;;;;;;;;2.33;1.00;;;;;;;;5098430;27;45258;-74
2022/06/29 01:04:57;;;;;;;;;1.00;1.00;;;;;;;;5098393;27;45344;-74
2022/06/29 01:07:23;;;;;;;;;3.00;1.67;;;;;;;;5098442;27;45382;-75
2022/06/29 01:09:48;;;;;;;;;0.33;0.33;;;;;;;;5097971;27;46525;-74
2022/06/29 01:12:14;;;;;;;;;0.00;0.00;;;;;;;;5098066;27;45346;-74
2022/06/29 01:14:43;;;;;;;;;1.00;1.00;;;;;;;;5098315;27;45240;-74
2022/06/29 01:17:08;;;;;;;;;2.67;2.67;;;;;;;;5098520;27;45234;-74
2022/06/29 01:19:34;;;;;;;;;1.67;1.00;;;;;;;;5097350;27;45328;-75
2022/06/29 01:22:06;;;;;;;;;0.67;0.67;;;;;;;;5098049;27;45271;-74
2022/06/29 01:24:31;;;;;;;;;3.33;0.67;;;;;;;;5098259;27;45503;-74
2022/06/29 01:26:56;;;;;;;;;1.00;1.00;;;;;;;;5098074;27;45458;-74
2022/06/29 01:29:22;;;;;;;;;1.67;1.00;;;;;;;;5097946;27;46201;-74
2022/06/29 01:31:52;;;;;;;;;1.00;1.00;;;;;;;;5097997;27;45465;-74
2022/06/29 01:34:18;;;;;;;;;3.00;1.33;;;;;;;;5098143;27;45288;-74
2022/06/29 01:36:43;;;;;;;;;3.33;3.00;;;;;;;;5098030;27;45308;-74
2022/06/29 01:39:08;;;;;;;;;5.00;2.00;;;;;;;;5098251;27;45499;-74
2022/06/29 01:41:33;;;;;;;;;2.67;2.00;;;;;;;;5097841;27;45318;-74
2022/06/29 01:43:59;;;;;;;;;2.67;2.67;;;;;;;;5097961;27;45484;-75
2022/06/29 01:46:24;;;;;;;;;2.00;2.00;;;;;;;;5098206;27;45403;-74
2022/06/29 01:48:50;;;;;;;;;4.00;3.00;;;;;;;;5097533;27;46319;-74
2022/06/29 01:51:15;;;;;;;;;2.33;2.00;;;;;;;;5097734;27;45454;-74
2022/06/29 01:53:40;;;;;;;;;2.00;2.00;;;;;;;;5098022;27;45453;-74
2022/06/29 01:56:06;;;;;;;;;3.33;2.00;;;;;;;;5097844;27;45453;-74
2022/06/29 01:58:32;;;;;;;;;4.00;3.00;;;;;;;;5097552;27;45313;-73
2022/06/29 02:00:57;;;;;;;;;3.00;2.00;;;;;;;;5097475;27;45306;-74
2022/06/29 02:03:22;;;;;;;;;1.33;1.33;;;;;;;;5097753;27;45334;-74
2022/06/29 02:05:47;;;;;;;;;3.33;2.33;;;;;;;;5097930;27;45280;-74
2022/06/29 02:08:12;;;;;;;;;2.00;2.00;;;;;;;;5100555;27;45529;-74
2022/06/29 02:10:38;;;;;;;;;4.67;2.00;;;;;;;;5111077;27;45397;-75
2022/06/29 02:13:03;;;;;;;;;2.33;2.33;;;;;;;;5106433;27;45435;-74
2022/06/29 02:15:28;;;;;;;;;3.33;2.00;;;;;;;;5097674;27;45277;-73
2022/06/29 02:17:54;;;;;;;;;3.00;2.00;;;;;;;;5097521;27;45345;-73
2022/06/29 02:20:19;;;;;;;;;2.67;2.67;;;;;;;;5097377;27;45264;-73
2022/06/29 02:22:44;;;;;;;;;3.33;3.00;;;;;;;;5097504;27;45224;-73
2022/06/29 02:25:10;;;;;;;;;3.67;3.00;;;;;;;;5097438;27;45187;-73
2022/06/29 02:27:44;;;;;;;;;2.67;2.67;;;;;;;;5097072;27;46370;-73
2022/06/29 02:30:11;;;;;;;;;5.00;2.67;;;;;;;;5097248;27;45271;-73
2022/06/29 02:35:20;;;;;;;;;6.00;6.00;;;;;;;;5100809;27;45338;-74
2022/06/29 02:37:45;;;;;;;;;4.00;4.00;;;;;;;;5100611;27;45387;-74
2022/06/29 02:40:11;;;;;;;;;6.00;5.00;;;;;;;;5100485;27;45264;-74
2022/06/29 02:42:36;;;;;;;;;5.67;4.33;;;;;;;;5100452;27;45364;-73
2022/06/29 02:45:02;;;;;;;;;3.67;3.67;;;;;;;;5100995;27;45296;-74
2022/06/29 02:47:27;;;;;;;;;5.00;5.00;;;;;;;;5100283;27;46471;-74
2022/06/29 02:49:53;;;;;;;;;5.00;4.00;;;;;;;;5100417;27;45768;-73
2022/06/29 02:52:18;;;;;;;;;4.00;3.00;;;;;;;;5100253;27;45218;-73
2022/06/29 02:54:43;;;;;;;;;6.33;4.00;;;;;;;;5100641;27;45355;-73
2022/06/29 02:57:08;;;;;;;;;4.33;3.67;;;;;;;;5100271;27;45612;-73
2022/06/29 02:59:34;;;;;;;;;6.67;3.33;;;;;;;;5099995;27;45507;-73
2022/06/29 03:01:59;;;;;;;;;3.33;1.67;;;;;;;;5100554;27;45406;-74
2022/06/29 03:04:24;;;;;;;;;3.00;3.00;;;;;;;;5100531;27;45296;-74
2022/06/29 03:06:50;;;;;;;;;3.00;3.00;;;;;;;;5100132;27;46429;-74
2022/06/29 03:09:15;;;;;;;;;3.67;3.67;;;;;;;;5100218;27;45418;-74
2022/06/29 03:11:40;;;;;;;;;6.67;3.00;;;;;;;;5099928;27;45249;-74
2022/06/29 03:14:05;;;;;;;;;3.00;3.00;;;;;;;;5100429;27;45224;-74
2022/06/29 03:16:30;;;;;;;;;3.00;3.00;;;;;;;;5099988;27;45349;-74
2022/06/29 03:18:56;;;;;;;;;3.00;3.00;;;;;;;;5100013;27;45413;-74
2022/06/29 03:21:21;;;;;;;;;5.00;4.67;;;;;;;;5100002;27;45438;-74
2022/06/29 03:23:46;;;;;;;;;4.00;4.00;;;;;;;;5100131;27;45438;-74
2022/06/29 03:26:12;;;;;;;;;4.00;4.00;;;;;;;;5099799;27;45253;-74
2022/06/29 03:28:37;;;;;;;;;5.00;4.00;;;;;;;;5099671;27;45215;-74
2022/06/29 03:31:03;;;;;;;;;11.67;7.00;;;;;;;;5099841;27;45421;-75
2022/06/29 03:33:28;;;;;;;;;4.00;4.00;;;;;;;;5099983;27;45303;-74
2022/06/29 03:35:53;;;;;;;;;4.67;4.67;;;;;;;;5099518;27;46267;-74
2022/06/29 03:38:18;;;;;;;;;3.00;3.00;;;;;;;;5099764;27;45333;-74
2022/06/29 03:40:44;;;;;;;;;4.00;4.00;;;;;;;;5099772;27;45402;-74
2022/06/29 03:43:09;;;;;;;;;4.00;4.00;;;;;;;;5099545;27;45557;-74
2022/06/29 03:45:34;;;;;;;;;3.33;3.33;;;;;;;;5099432;27;47318;-73
2022/06/29 03:47:59;;;;;;;;;5.00;3.67;;;;;;;;5099274;27;45326;-74
2022/06/29 03:50:24;;;;;;;;;4.00;4.00;;;;;;;;5099778;27;45261;-74
2022/06/29 03:52:50;;;;;;;;;4.33;4.33;;;;;;;;5099539;27;45461;-73
2022/06/29 03:55:15;;;;;;;;;4.67;4.67;;;;;;;;5099333;27;45331;-72
2022/06/29 03:57:40;;;;;;;;;4.67;4.67;;;;;;;;5099200;27;45218;-74
2022/06/29 04:00:06;;;;;;;;;4.33;4.00;;;;;;;;5099019;27;45349;-74
2022/06/29 04:02:31;;;;;;;;;5.00;4.67;;;;;;;;5099695;27;45225;-74
2022/06/29 04:04:56;;;;;;;;;4.67;4.67;;;;;;;;5099233;27;46500;-74
2022/06/29 04:07:23;;;;;;;;;3.33;3.33;;;;;;;;5099090;27;45404;-74
2022/06/29 04:09:48;;;;;;;;;3.67;3.67;;;;;;;;5099166;27;45344;-74
2022/06/29 04:12:13;;;;;;;;;2.00;2.00;;;;;;;;5099088;27;45379;-74
2022/06/29 04:14:38;;;;;;;;;5.00;5.00;;;;;;;;5099088;27;46468;-74
2022/06/29 04:17:04;;;;;;;;;4.67;3.00;;;;;;;;5098854;27;45806;-74
2022/06/29 04:19:29;;;;;;;;;6.00;3.00;;;;;;;;5099323;27;45255;-74
2022/06/29 04:21:54;;;;;;;;;4.00;4.00;;;;;;;;5099039;27;45389;-74
2022/06/29 04:24:20;;;;;;;;;2.67;2.67;;;;;;;;5098667;27;47415;-74
2022/06/29 04:26:46;;;;;;;;;6.33;5.00;;;;;;;;5098873;27;45391;-74
2022/06/29 04:29:11;;;;;;;;;4.67;4.67;;;;;;;;5098738;27;45296;-74
2022/06/29 04:31:37;;;;;;;;;7.33;7.33;;;;;;;;5099212;27;45342;-74
2022/06/29 04:34:02;;;;;;;;;4.00;4.00;;;;;;;;5098583;27;46595;-74
2022/06/29 04:36:28;;;;;;;;;5.00;5.00;;;;;;;;5098527;27;45413;-74
2022/06/29 04:38:54;;;;;;;;;10.33;7.00;;;;;;;;5098915;27;45233;-74
2022/06/29 04:41:19;;;;;;;;;9.67;5.33;;;;;;;;5098747;27;45376;-74
2022/06/29 04:43:45;;;;;;;;;12.00;6.00;;;;;;;;5098453;27;46100;-74
2022/06/29 04:46:19;;;;;;;;;4.00;4.00;;;;;;;;5098356;27;45314;-74
2022/06/29 04:48:45;;;;;;;;;4.00;4.00;;;;;;;;5098587;27;45243;-74
2022/06/29 04:51:10;;;;;;;;;4.67;4.00;;;;;;;;5098771;27;45572;-74
2022/06/29 04:53:35;;;;;;;;;4.33;4.00;;;;;;;;5097648;27;46077;-74
2022/06/29 04:56:00;;;;;;;;;7.33;7.33;;;;;;;;5098331;27;45376;-74
2022/06/29 04:58:26;;;;;;;;;6.00;6.00;;;;;;;;5098168;27;45147;-74
2022/06/29 05:00:51;;;;;;;;;7.33;6.00;;;;;;;;5098589;27;45351;-74
2022/06/29 05:03:16;;;;;;;;;5.33;5.33;;;;;;;;5098324;27;46822;-74
2022/06/29 05:05:42;;;;;;;;;4.33;4.33;;;;;;;;5098165;27;45429;-74
2022/06/29 05:08:08;;;;;;;;;4.33;4.33;;;;;;;;5097169;27;45319;-74
2022/06/29 05:10:33;;;;;;;;;5.00;4.00;;;;;;;;5098208;27;45480;-75
2022/06/29 05:12:58;;;;;;;;;5.00;5.00;;;;;;;;5097837;27;46288;-75
2022/06/29 05:15:24;;;;;;;;;6.67;6.67;;;;;;;;5098090;27;45365;-75
2022/06/29 05:17:49;;;;;;;;;6.00;5.00;;;;;;;;5098139;27;45435;-75
2022/06/29 05:20:14;;;;;;;;;8.00;6.00;;;;;;;;5098456;27;45310;-75
2022/06/29 05:22:40;;;;;;;;;7.00;6.00;;;;;;;;5097842;27;45605;-75
2022/06/29 05:25:05;;;;;;;;;7.67;6.00;;;;;;;;5097656;27;45282;-74
2022/06/29 05:27:30;;;;;;;;;7.00;7.00;;;;;;;;5097957;27;45443;-76
2022/06/29 05:29:56;;;;;;;;;8.33;7.00;;;;;;;;5097865;27;45354;-76
2022/06/29 05:32:21;;;;;;;;;4.00;3.00;;;;;;;;5098015;27;45390;-76
2022/06/29 05:34:46;;;;;;;;;9.00;6.67;;;;;;;;5097885;27;45287;-77
2022/06/29 05:37:11;;;;;;;;;6.00;6.00;;;;;;;;5098020;27;45364;-76
2022/06/29 05:39:37;;;;;;;;;10.00;7.67;;;;;;;;5096517;27;45450;-76
2022/06/29 05:42:02;;;;;;;;;9.00;9.00;;;;;;;;5097335;27;45826;-76
2022/06/29 05:44:28;;;;;;;;;10.33;9.33;;;;;;;;5097628;27;45272;-75
2022/06/29 05:46:53;;;;;;;;;11.33;10.33;;;;;;;;5097485;27;45430;-76
2022/06/29 05:49:18;;;;;;;;;13.00;9.67;;;;;;;;5097779;27;45280;-76
2022/06/29 05:51:43;;;;;;;;;21.67;20.00;;;;;;;;5097609;27;45608;-76
2022/06/29 05:54:08;;;;;;;;;22.00;20.33;;;;;;;;5097502;27;45399;-75
2022/06/29 05:56:34;;;;;;;;;24.33;20.33;;;;;;;;5097526;27;45295;-76
2022/06/29 05:58:59;;;;;;;;;30.33;24.00;;;;;;;;5097438;27;45357;-75
2022/06/29 06:01:24;;;;;;;;;22.67;21.33;;;;;;;;5097513;27;45592;-77
2022/06/29 06:03:49;;;;;;;;;23.67;22.00;;;;;;;;5097424;27;45311;-75
2022/06/29 06:06:15;;;;;;;;;24.67;23.67;;;;;;;;5099776;27;45205;-75
2022/06/29 06:08:40;;;;;;;;;16.33;12.67;;;;;;;;5101277;27;45487;-75
2022/06/29 06:11:05;;;;;;;;;11.33;11.00;;;;;;;;5100766;27;46319;-75
2022/06/29 06:13:30;;;;;;;;;12.33;9.67;;;;;;;;5100983;27;45411;-75
2022/06/29 06:15:56;;;;;;;;;11.33;6.33;;;;;;;;5101021;27;45393;-75
2022/06/29 06:18:21;;;;;;;;;8.00;6.33;;;;;;;;5101222;27;45231;-74
2022/06/29 06:20:46;;;;;;;;;10.00;9.00;;;;;;;;5100888;27;45659;-75
2022/06/29 06:23:12;;;;;;;;;5.33;4.00;;;;;;;;5100734;27;45153;-75
2022/06/29 06:25:37;;;;;;;;;9.00;7.67;;;;;;;;5101090;27;45581;-74
2022/06/29 06:28:02;;;;;;;;;3.67;3.67;;;;;;;;5100924;27;45510;-75
2022/06/29 06:30:27;;;;;;;;;6.00;4.67;;;;;;;;5100553;27;46434;-75
2022/06/29 06:32:53;;;;;;;;;6.00;6.00;;;;;;;;5100818;27;45348;-75
2022/06/29 06:35:19;;;;;;;;;6.00;5.00;;;;;;;;5100631;27;45294;-75
2022/06/29 06:37:44;;;;;;;;;6.00;6.00;;;;;;;;5100860;27;45299;-75
2022/06/29 06:42:54;;;;;;;;;6.00;5.33;;;;;;;;5100442;27;45408;-75
2022/06/29 06:45:19;;;;;;;;;4.00;4.00;;;;;;;;5100458;27;45400;-74
2022/06/29 06:47:44;;;;;;;;;7.67;4.33;;;;;;;;5100805;27;45363;-75
2022/06/29 06:50:09;;;;;;;;;7.67;6.67;;;;;;;;5100273;27;46473;-75
2022/06/29 06:52:35;;;;;;;;;7.00;5.00;;;;;;;;5100520;27;45254;-74
2022/06/29 06:55:00;;;;;;;;;11.33;5.00;;;;;;;;5100461;27;45323;-74
2022/06/29 06:57:25;;;;;;;;;6.00;6.00;;;;;;;;5100619;27;45286;-75
2022/06/29 06:59:53;;;;;;;;;7.00;7.00;;;;;;;;5099942;27;46589;-75
2022/06/29 07:02:18;;;;;;;;;5.67;3.33;;;;;;;;5100198;27;45311;-77
2022/06/29 07:04:46;;;;;;;;;11.33;10.00;;;;;;;;5100385;27;45471;-75
2022/06/29 07:07:11;;;;;;;;;11.00;7.67;;;;;;;;5100452;27;45177;-75
2022/06/29 07:09:37;;;;;;;;;12.67;7.00;;;;;;;;5099822;27;46075;-75
2022/06/29 07:12:02;;;;;;;;;7.33;7.33;;;;;;;;5100015;27;45501;-75
2022/06/29 07:14:28;;;;;;;;;7.67;7.00;;;;;;;;5100032;27;45303;-77
2022/06/29 07:16:53;;;;;;;;;8.33;6.33;;;;;;;;5099661;27;45355;-76
2022/06/29 07:19:18;;;;;;;;;5.00;4.67;;;;;;;;5099933;27;45376;-75
2022/06/29 07:21:43;;;;;;;;;5.67;5.67;;;;;;;;5099920;27;45245;-74
2022/06/29 07:24:08;;;;;;;;;6.00;5.67;;;;;;;;5100062;27;45321;-76
2022/06/29 07:26:34;;;;;;;;;7.67;6.67;;;;;;;;5100175;27;45452;-76
2022/06/29 07:28:59;;;;;;;;;9.00;7.67;;;;;;;;5099724;27;46614;-77
2022/06/29 07:31:24;;;;;;;;;6.00;6.00;;;;;;;;5099752;27;45353;-76
2022/06/29 07:33:49;;;;;;;;;4.00;3.00;;;;;;;;5099883;27;45369;-77
2022/06/29 07:36:15;;;;;;;;;6.33;4.00;;;;;;;;5099850;27;45402;-76
2022/06/29 07:38:40;;;;;;;;;11.67;6.67;;;;;;;;5099545;27;45491;-75
2022/06/29 07:41:05;;;;;;;;;8.33;7.00;;;;;;;;5099716;27;45228;-75
2022/06/29 07:43:30;;;;;;;;;4.67;3.00;;;;;;;;5099555;27;45398;-75
2022/06/29 07:45:57;;;;;;;;;5.00;3.00;;;;;;;;5099894;27;45341;-77
2022/06/29 07:48:22;;;;;;;;;4.00;4.00;;;;;;;;5099337;27;46353;-77
2022/06/29 07:50:47;;;;;;;;;6.67;4.33;;;;;;;;5099247;27;45324;-76
2022/06/29 07:53:12;;;;;;;;;5.00;5.00;;;;;;;;5099657;27;45485;-75
2022/06/29 07:55:38;;;;;;;;;4.67;4.00;;;;;;;;5099703;27;45296;-75
2022/06/29 07:58:03;;;;;;;;;3.67;3.67;;;;;;;;5099190;27;45550;-77
2022/06/29 08:00:28;;;;;;;;;5.67;4.00;;;;;;;;5098899;27;45348;-77
2022/06/29 08:02:54;;;;;;;;;4.00;4.00;;;;;;;;5099371;27;45418;-77
2022/06/29 08:05:20;;;;;;;;;4.00;4.00;;;;;;;;5099645;27;45263;-76
2022/06/29 08:07:45;;;;;;;;;6.00;4.00;;;;;;;;5099120;27;46503;-74
2022/06/29 08:10:10;;;;;;;;;3.33;3.33;;;;;;;;5099060;27;45346;-77
2022/06/29 08:12:36;;;;;;;;;5.00;5.00;;;;;;;;5099365;27;45291;-78
2022/06/29 08:15:02;;;;;;;;;5.00;5.00;;;;;;;;5099235;27;45383;-77
2022/06/29 08:17:27;;;;;;;;;6.00;6.00;;;;;;;;5098913;27;46605;-77
2022/06/29 08:19:52;;;;;;;;;5.00;5.00;;;;;;;;5098851;27;45231;-75
2022/06/29 08:22:17;;;;;;;;;8.33;6.00;;;;;;;;5099164;27;45413;-78
2022/06/29 08:24:43;;;;;;;;;4.67;4.67;;;;;;;;5099211;27;45300;-80
2022/06/29 08:27:08;;;;;;;;;6.00;4.00;;;;;;;;5098872;27;46573;-76
2022/06/29 08:29:33;;;;;;;;;6.33;4.00;;;;;;;;5097536;27;45306;-77
2022/06/29 08:31:58;;;;;;;;;4.00;3.33;;;;;;;;5098999;27;45338;-77
2022/06/29 08:34:27;;;;;;;;;6.00;5.00;;;;;;;;5099063;27;45357;-77
2022/06/29 08:36:52;;;;;;;;;3.67;3.67;;;;;;;;5098619;27;45626;-78
2022/06/29 08:39:17;;;;;;;;;9.33;3.00;;;;;;;;5098532;27;45436;-78
2022/06/29 08:41:43;;;;;;;;;6.33;3.00;;;;;;;;5098840;27;45135;-76
2022/06/29 08:44:08;;;;;;;;;6.00;5.00;;;;;;;;5098825;27;45318;-76
2022/06/29 08:46:34;;;;;;;;;4.33;3.00;;;;;;;;5098559;27;45910;-74
2022/06/29 08:49:01;;;;;;;;;1.00;1.00;;;;;;;;5114870;27;45296;-75
2022/06/29 08:51:31;;;;;;;;;4.00;4.00;;;;;;;;5118601;27;45417;-80
2022/06/29 08:53:57;;;;;;;;;5.00;4.00;;;;;;;;5116210;27;45308;-72
2022/06/29 08:56:23;;;;;;;;;3.00;3.00;;;;;;;;5118141;27;45571;-74
2022/06/29 08:58:51;;;;;;;;;3.67;3.00;;;;;;;;5118077;27;45323;-74
2022/06/29 09:01:17;;;;;;;;;2.33;2.33;;;;;;;;5116019;27;45287;-73
2022/06/29 09:03:42;;;;;;;;;2.00;2.00;;;;;;;;5118397;27;45233;-72
2022/06/29 09:06:08;;;;;;;;;2.67;2.67;;;;;;;;5118070;27;45507;-73
2022/06/29 09:08:33;;;;;;;;;2.67;1.67;;;;;;;;5118028;27;45459;-72
2022/06/29 09:11:18;;;;;;;;;3.00;2.67;;;;;;;;5118387;27;45371;-74
2022/06/29 09:13:43;;;;;;;;;2.67;2.67;;;;;;;;5116784;27;45428;-73
2022/06/29 09:16:09;;;;;;;;;5.00;4.00;;;;;;;;5117206;27;46228;-72
2022/06/29 09:18:34;;;;;;;;;3.00;3.00;;;;;;;;5118743;27;45406;-80
2022/06/29 09:21:03;;;;;;;;;7.00;3.00;;;;;;;;5119224;27;45439;-79
2022/06/29 09:23:29;;;;;;;;;3.00;2.00;;;;;;;;5119058;27;45315;-82
2022/06/29 09:25:55;;;;;;;;;3.33;3.33;;;;;;;;5118724;27;46611;-79
2022/06/29 09:28:28;;;;;;;;;1.33;1.33;;;;;;;;5118417;27;45307;-79
2022/06/29 09:30:54;;;;;;;;;2.67;2.00;;;;;;;;5118598;27;45468;-76
2022/06/29 09:33:21;;;;;;;;;1.33;1.00;;;;;;;;5118992;27;45211;-78
2022/06/29 09:36:02;;;;;;;;;2.00;2.00;;;;;;;;5118423;27;45311;-74
2022/06/29 09:38:27;;;;;;;;;2.00;2.00;;;;;;;;5118428;27;45393;-77
2022/06/29 09:41:00;;;;;;;;;2.33;2.33;;;;;;;;5118848;27;45404;-77
2022/06/29 09:43:25;;;;;;;;;2.67;2.00;;;;;;;;5122379;27;45441;-77
2022/06/29 09:45:52;;;;;;;;;4.00;3.00;;;;;;;;5121934;27;46129;-76
2022/06/29 09:48:20;;;;;;;;;4.67;2.67;;;;;;;;5122092;27;45286;-76
2022/06/29 09:50:45;;;;;;;;;3.00;1.67;;;;;;;;5122100;27;45283;-77
2022/06/29 09:53:11;;;;;;;;;2.00;2.00;;;;;;;;5122291;27;45402;-73
2022/06/29 09:55:36;;;;;;;;;2.00;2.00;;;;;;;;5121995;27;46278;-72
2022/06/29 09:58:03;;;;;;;;;1.33;1.33;;;;;;;;5120371;27;45343;-75
2022/06/29 10:03:13;;;;;;;;;0.67;0.33;;;;;;;;5122439;27;45326;-74
2022/06/29 10:06:04;;;;;;;;;1.00;0.67;;;;;;;;5121725;27;45413;-77
2022/06/29 10:08:30;;;;;;;;;1.67;0.67;;;;;;;;5121752;27;45436;-82
2022/06/29 10:10:58;;;;;;;;;5.00;4.00;;;;;;;;5114507;27;45396;-77
2022/06/29 10:13:39;;;;;;;;;2.00;1.00;;;;;;;;5110262;27;45392;-81
2022/06/29 10:16:08;;;;;;;;;1.33;1.00;;;;;;;;5100911;27;46178;-83
2022/06/29 10:18:48;;;;;;;;;3.67;0.67;;;;;;;;5101023;27;45367;-76
2022/06/29 10:21:18;;;;;;;;;0.00;0.00;;;;;;;;5100641;27;45454;-82
2022/06/29 10:23:44;;;;;;;;;0.00;0.00;;;;;;;;5101369;27;45368;-82
2022/06/29 10:26:30;;;;;;;;;3.67;1.00;;;;;;;;5100824;27;46253;-81
2022/06/29 10:28:56;;;;;;;;;2.00;0.67;;;;;;;;5100582;27;45373;-79
2022/06/29 10:31:41;;;;;;;;;5.00;4.00;;;;;;;;5100655;27;45335;-78
2022/06/29 10:34:25;;;;;;;;;1.00;1.00;;;;;;;;5058079;28;45491;-78
2022/06/29 10:37:02;;;;;;;;;1.00;0.00;;;;;;;;5057828;28;45448;-83
2022/06/29 10:39:50;;;;;;;;;3.00;0.00;;;;;;;;5057816;28;45364;-77
2022/06/29 10:45:07;;;;;;;;;1.00;0.00;;;;;;;;5057792;28;45443;-80
2022/06/29 10:47:33;;;;;;;;;0.00;0.00;;;;;;;;5057288;28;46231;-83
2022/06/29 10:50:17;;;;;;;;;0.00;0.00;;;;;;;;5057502;28;45444;-79
2022/06/29 10:52:44;;;;;;;;;0.00;0.00;;;;;;;;5056758;28;45408;-76
2022/06/29 10:55:09;;;;;;;;;0.67;0.00;;;;;;;;5057652;28;45421;-81
2022/06/29 10:57:35;;;;;;;;;0.00;0.00;;;;;;;;5057238;28;45632;-78
2022/06/29 11:00:04;;;;;;;;;2.00;0.00;;;;;;;;5057190;28;45383;-79
2022/06/29 11:02:29;;;;;;;;;0.00;0.00;;;;;;;;5057551;28;45395;-76
2022/06/29 11:04:54;;;;;;;;;0.00;0.00;;;;;;;;5057505;28;45515;-77
2022/06/29 11:12:47;;;;;;;;;1.67;0.00;;;;;;;;5099995;27;45303;-76
2022/06/29 11:17:56;;;;;;;;;1.33;1.33;;;;;;;;5099955;27;45412;-76
2022/06/29 11:20:22;;;;;;;;;1.67;1.67;;;;;;;;5099863;27;45323;-76
2022/06/29 11:22:51;;;;;;;;;2.00;0.67;;;;;;;;5099927;27;45304;-77
2022/06/29 11:25:16;;;;;;;;;1.67;1.67;;;;;;;;5099892;27;45599;-75
2022/06/29 11:27:41;;;;;;;;;2.33;2.00;;;;;;;;5099370;27;45687;-74
2022/06/29 11:30:08;;;;;;;;;2.67;1.00;;;;;;;;5099385;27;45306;-77
2022/06/29 11:32:38;;;;;;;;;1.33;1.33;;;;;;;;5099951;27;45259;-74
2022/06/29 11:35:05;;;;;;;;;3.00;2.00;;;;;;;;5099750;27;45381;-75
2022/06/29 11:37:30;;;;;;;;;3.33;3.00;;;;;;;;5115192;27;45306;-75
2022/06/29 11:39:56;;;;;;;;;8.00;8.00;;;;;;;;5119262;27;45283;-74
2022/06/29 11:45:12;;;;;;;;;2.33;1.00;;;;;;;;5120239;27;45392;-77
2022/06/29 11:47:38;;;;;;;;;2.00;2.00;;;;;;;;5119683;27;46248;-79
2022/06/29 11:50:12;;;;;;;;;2.00;2.00;;;;;;;;5120033;27;45372;-80
2022/06/29 11:52:37;;;;;;;;;1.00;1.00;;;;;;;;5120002;27;45278;-78
2022/06/29 11:55:03;;;;;;;;;0.33;0.33;;;;;;;;5119952;27;45297;-78
2022/06/29 11:57:28;;;;;;;;;3.33;2.00;;;;;;;;5119527;27;45911;-79
2022/06/29 12:00:03;;;;;;;;;13.00;11.00;;;;;;;;5119400;27;45431;-79
2022/06/29 12:02:33;;;;;;;;;4.33;4.33;;;;;;;;5119940;27;45471;-79
2022/06/29 12:04:58;;;;;;;;;2.33;2.00;;;;;;;;5119557;27;45309;-75
2022/06/29 12:07:24;;;;;;;;;1.00;1.00;;;;;;;;5119705;27;46451;-76
2022/06/29 12:09:50;;;;;;;;;1.00;1.00;;;;;;;;5119563;27;45314;-74
2022/06/29 12:12:17;;;;;;;;;1.67;1.33;;;;;;;;5119546;27;45431;-81
2022/06/29 12:14:42;;;;;;;;;2.00;2.00;;;;;;;;5120142;27;45458;-80
2022/06/29 12:17:09;;;;;;;;;1.00;1.00;;;;;;;;5119526;27;45309;-74
2022/06/29 12:19:35;;;;;;;;;2.00;0.67;;;;;;;;5118460;27;45417;-75
2022/06/29 12:22:00;;;;;;;;;1.00;1.00;;;;;;;;5118835;27;45289;-77
2022/06/29 12:24:26;;;;;;;;;1.67;1.67;;;;;;;;5119691;27;45458;-76
2022/06/29 12:26:52;;;;;;;;;1.33;1.33;;;;;;;;5119313;27;46637;-73
2022/06/29 12:29:18;;;;;;;;;2.00;1.00;;;;;;;;5119246;27;45452;-76
2022/06/29 12:31:44;;;;;;;;;1.33;1.33;;;;;;;;5118236;27;45349;-74
2022/06/29 12:34:10;;;;;;;;;2.00;2.00;;;;;;;;5117492;27;45389;-74
2022/06/29 12:36:35;;;;;;;;;3.00;3.00;;;;;;;;5117926;27;46806;-80
2022/06/29 12:39:01;;;;;;;;;1.67;1.67;;;;;;;;5119057;27;45375;-72
2022/06/29 12:41:26;;;;;;;;;2.00;2.00;;;;;;;;5120403;27;45226;-76
2022/06/29 12:43:52;;;;;;;;;1.00;1.00;;;;;;;;5119002;27;45382;-79
2022/06/29 12:46:17;;;;;;;;;1.33;1.00;;;;;;;;5118574;27;45530;-76
2022/06/29 12:48:42;;;;;;;;;2.00;1.00;;;;;;;;5129848;27;45407;-81
2022/06/29 12:51:09;;;;;;;;;1.00;1.00;;;;;;;;5139701;27;45309;-75
2022/06/29 12:53:34;;;;;;;;;1.67;1.33;;;;;;;;5139546;27;45714;-76
2022/06/29 12:55:59;;;;;;;;;3.00;2.00;;;;;;;;5139519;27;45385;-74
2022/06/29 12:58:25;;;;;;;;;2.33;1.00;;;;;;;;5139191;27;45475;-76
2022/06/29 13:00:50;;;;;;;;;2.33;2.33;;;;;;;;5138497;27;45310;-74
2022/06/29 13:03:16;;;;;;;;;4.00;2.00;;;;;;;;5139823;27;45366;-73
2022/06/29 13:05:41;;;;;;;;;2.00;2.00;;;;;;;;5139338;27;46195;-76
2022/06/29 13:08:07;;;;;;;;;2.00;2.00;;;;;;;;5139487;27;45431;-73
2022/06/29 13:10:32;;;;;;;;;1.00;1.00;;;;;;;;5125047;27;45402;-76
2022/06/29 13:12:57;;;;;;;;;2.00;2.00;;;;;;;;5136806;27;45481;-75
2022/06/29 13:15:23;;;;;;;;;2.33;2.00;;;;;;;;5119759;27;45797;-72
2022/06/29 13:17:48;;;;;;;;;3.33;0.00;;;;;;;;5117405;27;45742;-74
2022/06/29 13:20:13;;;;;;;;;3.00;1.67;;;;;;;;5117775;27;46043;-75
2022/06/29 13:22:39;;;;;;;;;1.00;1.00;;;;;;;;5117414;27;45409;-72
2022/06/29 13:25:05;;;;;;;;;1.33;1.33;;;;;;;;5117376;27;47530;-71
2022/06/29 13:27:30;;;;;;;;;2.00;2.00;;;;;;;;5117688;27;45354;-73
2022/06/29 13:29:55;;;;;;;;;4.00;4.00;;;;;;;;5117491;27;45241;-75
2022/06/29 13:32:21;;;;;;;;;1.00;1.00;;;;;;;;5117854;27;45325;-73
2022/06/29 13:34:46;;;;;;;;;1.33;1.33;;;;;;;;5117091;27;46370;-74
2022/06/29 13:37:11;;;;;;;;;6.67;4.00;;;;;;;;5117449;27;45402;-74
2022/06/29 13:39:37;;;;;;;;;1.00;1.00;;;;;;;;5117673;27;45582;-74
2022/06/29 13:42:02;;;;;;;;;2.00;2.00;;;;;;;;5117577;27;45520;-75
2022/06/29 13:44:27;;;;;;;;;2.00;2.00;;;;;;;;5115004;27;45598;-71
2022/06/29 13:46:53;;;;;;;;;3.00;1.00;;;;;;;;5110678;27;45812;-76
2022/06/29 13:49:18;;;;;;;;;4.67;2.00;;;;;;;;5117417;27;45556;-75
2022/06/29 13:51:44;;;;;;;;;2.00;1.00;;;;;;;;5117698;27;45417;-73
2022/06/29 13:54:09;;;;;;;;;2.00;2.00;;;;;;;;5117217;27;45571;-72
2022/06/29 13:56:34;;;;;;;;;1.00;1.00;;;;;;;;5116461;27;45626;-74
2022/06/29 13:59:00;;;;;;;;;3.00;2.00;;;;;;;;5116549;27;45409;-73
2022/06/29 14:01:25;;;;;;;;;1.00;1.00;;;;;;;;5123377;27;45366;-72
2022/06/29 14:03:50;;;;;;;;;3.00;1.33;;;;;;;;5118255;27;46653;-74
2022/06/29 14:06:16;;;;;;;;;1.00;1.00;;;;;;;;5116940;27;45333;-75
2022/06/29 14:08:41;;;;;;;;;2.00;2.00;;;;;;;;5117943;27;45299;-74
2022/06/29 14:11:06;;;;;;;;;1.67;1.67;;;;;;;;5117970;27;45397;-75
2022/06/29 14:13:32;;;;;;;;;1.33;1.00;;;;;;;;5117884;27;46087;-73
2022/06/29 14:15:57;;;;;;;;;1.33;1.33;;;;;;;;5117384;27;45418;-75
2022/06/29 14:18:24;;;;;;;;;2.33;2.33;;;;;;;;5117909;27;45679;-75
2022/06/29 14:20:49;;;;;;;;;3.67;2.00;;;;;;;;5116454;27;45345;-74
2022/06/29 14:23:14;;;;;;;;;3.00;2.00;;;;;;;;5117317;27;46334;-76
2022/06/29 14:25:39;;;;;;;;;4.33;2.00;;;;;;;;5117755;27;45429;-75
2022/06/29 14:28:05;;;;;;;;;2.00;2.00;;;;;;;;5121161;27;45226;-75
2022/06/29 14:30:30;;;;;;;;;3.67;2.33;;;;;;;;5120969;27;45364;-75
2022/06/29 14:32:56;;;;;;;;;1.00;1.00;;;;;;;;5120685;27;45324;-74
2022/06/29 14:35:21;;;;;;;;;2.00;2.00;;;;;;;;5120859;27;45322;-75
2022/06/29 14:37:46;;;;;;;;;1.00;1.00;;;;;;;;5120831;27;45252;-76
2022/06/29 14:40:12;;;;;;;;;1.67;1.67;;;;;;;;5121252;27;45580;-77
2022/06/29 14:42:37;;;;;;;;;4.00;4.00;;;;;;;;5120038;27;46824;-75
2022/06/29 14:45:03;;;;;;;;;2.00;2.00;;;;;;;;5120809;27;45410;-75
2022/06/29 14:47:28;;;;;;;;;1.00;1.00;;;;;;;;5120079;27;45248;-73
2022/06/29 14:49:53;;;;;;;;;2.00;1.00;;;;;;;;5120598;27;45318;-76
2022/06/29 14:52:19;;;;;;;;;1.33;1.33;;;;;;;;5120430;27;46418;-74
2022/06/29 14:54:45;;;;;;;;;2.00;2.00;;;;;;;;5120335;27;45334;-76
2022/06/29 14:57:11;;;;;;;;;1.33;1.33;;;;;;;;5120945;27;45325;-74